Airfield :
LOGIN :

Register | Disclaimer

   EN    FR    IT 

 










Legend :    VFR   Marginal VFR   IFR   Intensive IFR   Very Intensive IFR
Visi :
Ceiling :
>= 8 km
>= 3000ft
5 to 8 km
1000 to 3000 ft
1500m to 5 km
500 to 1000 ft
800 to 1500m
200 to 500 ft
< 800m
< 200 ft
Symbols :   Thunderstorms  Fog  Heavy snow  Heavy precipitations  Wind > 20 kt
SIGMETs :     Misc.  Thunderstorms  Icing  Turbulence  Mountain Waves  Volcanic Ashes






- Airport Elevation : 2945 ft
- IATA code : RGS


LEBG - Burgos

CURRENT METAR :
  • 180730Z VRB02KT 0200 R22/0500N R04/0200N FG VV002 01/01 Q1028

EXPIRED METARs :
  • 180700Z 28003KT 230V320 0200 R22/0550N R04/0200N FG VV002 02/02 Q1028
  • 180630Z AUTO 00000KT 0250 0200SW R22/0750U R04/0200N FG VV002 02/02 Q1028
  • 180600Z AUTO 00000KT 1100 0200NE R22/0600N R04/1800D BR BCFG VV002 02/02 Q1028
  • 180530Z AUTO VRB01KT 7000 2500NE VV003 02/02 Q1028
  • 180500Z AUTO VRB01KT 4200 BR OVC003 02/02 Q1027

Expired Forecast.



MET'MAP, your aeronautical weather chart ! - Copyright ORBIFLY December 2007 - Disclaimer

ORBIFLY MET'MAP TEAM :

Programming & Development : Alexandra Zaïnal
Concept & original design : Baudouin d'Aumeries
Assistance for programming : Marc-Olivier Méhu
Technical & hardware support : Manuel Goepfert

Contact : metmap@orbifly.com




SOURCES & CREDITS :

   NOAA